Time;durP1;ratioP1;P1;durP2;ratioP2;P2;SDS_P1;SDS_P2;PMS_P1;PMS_P2;Temp;Humidity;BMP_temperature;BMP_pressure;BME280_temperature;BME280_humidity;BME280_pressure;Samples;Min_cycle;Max_cycle;Signal;HPM_P1;HPM_P2
2023/06/17 00:02:02;;;;;;;;;;;24.10;42.60;;;;;;5073769;28;19924;-63
2023/06/17 00:04:27;;;;;;;;;;;24.10;42.60;;;;;;5091982;28;19959;-63
2023/06/17 00:06:53;;;;;;;;;;;24.10;42.70;;;;;;5091920;28;19928;-63
2023/06/17 00:09:19;;;;;;;;;;;24.10;42.70;;;;;;5073768;28;20029;-63
2023/06/17 00:11:44;;;;;;;;;;;24.10;42.80;;;;;;5073768;28;19920;-69
2023/06/17 00:14:10;;;;;;;;;;;24.10;42.80;;;;;;5073964;28;20027;-63
2023/06/17 00:16:36;;;;;;;;;;;24.10;42.80;;;;;;5075118;28;19920;-62
2023/06/17 00:19:03;;;;;;;;;;;24.10;42.80;;;;;;5095658;28;20375;-63
2023/06/17 00:21:28;;;;;;;;;;;24.10;42.90;;;;;;5095355;28;19946;-63
2023/06/17 00:23:54;;;;;;;;;;;24.10;42.90;;;;;;5095365;28;20426;-63
2023/06/17 00:26:19;;;;;;;;;;;24.10;43.00;;;;;;5077417;28;20367;-63
2023/06/17 00:28:45;;;;;;;;;;;24.10;42.90;;;;;;5076758;28;20012;-63
2023/06/17 00:31:10;;;;;;;;;;;24.10;43.00;;;;;;5077522;28;19986;-63
2023/06/17 00:33:36;;;;;;;;;;;24.10;43.00;;;;;;5077015;28;19927;-63
2023/06/17 00:36:02;;;;;;;;;;;24.00;43.00;;;;;;5076980;28;19928;-63
2023/06/17 00:38:28;;;;;;;;;;;24.00;43.00;;;;;;5095040;28;20048;-63
2023/06/17 00:40:53;;;;;;;;;;;24.00;43.10;;;;;;5077229;28;19936;-63
2023/06/17 00:43:19;;;;;;;;;;;24.10;43.20;;;;;;5077158;28;19928;-63
2023/06/17 00:45:44;;;;;;;;;;;24.00;43.10;;;;;;5077341;28;19928;-63
2023/06/17 00:48:10;;;;;;;;;;;24.00;43.20;;;;;;5094871;28;20425;-63
2023/06/17 00:50:36;;;;;;;;;;;24.00;43.20;;;;;;5094793;28;19931;-63
2023/06/17 00:53:02;;;;;;;;;;;23.90;43.30;;;;;;5094836;28;20306;-62
2023/06/17 00:55:27;;;;;;;;;;;23.90;43.20;;;;;;5076922;28;19920;-62
2023/06/17 00:57:53;;;;;;;;;;;23.90;43.30;;;;;;5094691;28;20458;-63
2023/06/17 01:00:18;;;;;;;;;;;23.90;43.30;;;;;;5076926;28;19931;-63
2023/06/17 01:02:46;;;;;;;;;;;23.90;43.30;;;;;;5076792;28;19920;-63
2023/06/17 01:05:12;;;;;;;;;;;23.90;43.40;;;;;;5094699;28;20401;-63
2023/06/17 01:10:40;;;;;;;;;;;23.90;43.50;;;;;;5110300;27;19912;-62
2023/06/17 01:13:05;;;;;;;;;;;23.90;43.50;;;;;;5108789;28;20015;-62
2023/06/17 01:15:34;;;;;;;;;;;23.80;43.50;;;;;;5109247;28;20011;-62
2023/06/17 01:18:01;;;;;;;;;;;23.80;43.60;;;;;;5109126;28;19943;-62
2023/06/17 01:20:28;;;;;;;;;;;23.80;43.60;;;;;;5108922;28;19920;-62
2023/06/17 01:22:54;;;;;;;;;;;23.80;43.60;;;;;;5109031;28;20391;-62
2023/06/17 01:25:20;;;;;;;;;;;23.80;43.70;;;;;;5108892;28;19973;-62
2023/06/17 01:27:49;;;;;;;;;;;23.80;43.70;;;;;;5108887;28;19924;-62
2023/06/17 01:30:15;;;;;;;;;;;23.80;43.70;;;;;;5109865;28;20393;-63
2023/06/17 01:32:40;;;;;;;;;;;23.80;43.80;;;;;;5108959;28;20011;-62
2023/06/17 01:35:07;;;;;;;;;;;23.80;43.80;;;;;;5109769;28;19970;-62
2023/06/17 01:37:37;;;;;;;;;;;23.70;43.80;;;;;;5108800;28;19920;-62
2023/06/17 01:40:04;;;;;;;;;;;23.70;43.90;;;;;;5108376;28;20011;-62
2023/06/17 01:42:31;;;;;;;;;;;23.70;43.80;;;;;;5108758;28;19920;-63
2023/06/17 01:44:59;;;;;;;;;;;23.70;43.90;;;;;;5108364;28;19920;-62
2023/06/17 01:47:24;;;;;;;;;;;23.70;43.90;;;;;;5108658;28;19920;-62
2023/06/17 01:49:50;;;;;;;;;;;23.70;43.90;;;;;;5109484;28;20082;-62
2023/06/17 01:52:15;;;;;;;;;;;23.70;44.00;;;;;;5108472;28;19924;-63
2023/06/17 01:54:41;;;;;;;;;;;23.70;44.00;;;;;;5108173;28;19946;-62
2023/06/17 01:57:07;;;;;;;;;;;23.60;43.90;;;;;;5108474;28;19927;-63
2023/06/17 01:59:32;;;;;;;;;;;23.60;44.10;;;;;;5109350;28;20440;-62
2023/06/17 02:01:58;;;;;;;;;;;23.70;44.10;;;;;;5108370;28;20359;-62
2023/06/17 02:04:23;;;;;;;;;;;23.60;44.00;;;;;;5108282;28;19967;-62
2023/06/17 02:06:49;;;;;;;;;;;23.60;44.20;;;;;;5108041;28;20279;-62
2023/06/17 02:09:14;;;;;;;;;;;23.60;44.10;;;;;;5108855;28;19950;-62
2023/06/17 02:11:40;;;;;;;;;;;23.60;44.10;;;;;;5107739;28;19926;-62
2023/06/17 02:14:06;;;;;;;;;;;23.60;44.20;;;;;;5108096;28;19926;-62
2023/06/17 02:16:32;;;;;;;;;;;23.60;44.20;;;;;;5107742;28;19924;-62
2023/06/17 02:18:57;;;;;;;;;;;23.50;44.20;;;;;;5107757;28;20044;-62
2023/06/17 02:21:22;;;;;;;;;;;23.60;44.30;;;;;;5095527;28;19920;-62
2023/06/17 02:23:48;;;;;;;;;;;23.50;44.20;;;;;;5094301;28;19927;-62
2023/06/17 02:26:16;;;;;;;;;;;23.60;44.30;;;;;;5093959;28;20393;-63
2023/06/17 02:28:42;;;;;;;;;;;23.50;44.30;;;;;;5095267;28;19928;-62
2023/06/17 02:31:08;;;;;;;;;;;23.50;44.30;;;;;;5095200;28;20007;-62
2023/06/17 02:33:34;;;;;;;;;;;23.50;44.30;;;;;;5093923;28;20054;-62
2023/06/17 02:35:59;;;;;;;;;;;23.50;44.40;;;;;;5095120;28;20392;-62
2023/06/17 02:38:25;;;;;;;;;;;23.50;44.30;;;;;;5093703;28;20459;-62
2023/06/17 02:40:50;;;;;;;;;;;23.50;44.30;;;;;;5093751;28;20075;-62
2023/06/17 02:43:16;;;;;;;;;;;23.50;44.30;;;;;;5093933;28;19927;-62
2023/06/17 02:45:41;;;;;;;;;;;23.50;44.30;;;;;;5094905;28;20019;-62
2023/06/17 02:48:06;;;;;;;;;;;23.50;44.30;;;;;;5094918;28;19920;-62
2023/06/17 02:50:32;;;;;;;;;;;23.40;44.30;;;;;;5093562;28;20330;-62
2023/06/17 02:52:57;;;;;;;;;;;23.40;44.30;;;;;;5094754;28;19927;-62
2023/06/17 02:55:25;;;;;;;;;;;23.40;44.30;;;;;;5094727;28;19935;-62
2023/06/17 02:57:50;;;;;;;;;;;23.40;44.40;;;;;;5093942;28;20002;-62
2023/06/17 03:00:16;;;;;;;;;;;23.40;44.40;;;;;;5093712;28;20406;-63
2023/06/17 03:02:42;;;;;;;;;;;23.40;45.30;;;;;;5093264;28;19920;-62
2023/06/17 03:05:07;;;;;;;;;;;23.40;44.60;;;;;;5093603;28;19920;-62
2023/06/17 03:07:36;;;;;;;;;;;23.40;44.60;;;;;;5093779;28;20203;-62
2023/06/17 03:10:03;;;;;;;;;;;23.40;44.60;;;;;;5092802;28;20452;-62
2023/06/17 03:12:28;;;;;;;;;;;23.40;44.70;;;;;;5093056;28;19926;-63
2023/06/17 03:14:53;;;;;;;;;;;23.30;44.70;;;;;;5093337;28;20007;-63
2023/06/17 03:17:19;;;;;;;;;;;23.40;44.80;;;;;;5093001;28;19989;-62
2023/06/17 03:19:46;;;;;;;;;;;23.30;44.70;;;;;;5093331;28;19963;-62
2023/06/17 03:22:11;;;;;;;;;;;23.30;44.80;;;;;;5094199;28;19978;-62
2023/06/17 03:24:37;;;;;;;;;;;23.30;44.90;;;;;;5092817;28;20315;-62
2023/06/17 03:27:02;;;;;;;;;;;23.30;44.90;;;;;;5092988;28;19920;-62
2023/06/17 03:29:30;;;;;;;;;;;23.30;44.90;;;;;;5092653;28;19931;-62
2023/06/17 03:31:56;;;;;;;;;;;23.30;45.00;;;;;;5093176;28;19920;-62
2023/06/17 03:34:22;;;;;;;;;;;23.30;45.00;;;;;;5092633;28;19964;-62
2023/06/17 03:36:49;;;;;;;;;;;23.30;45.10;;;;;;5092625;28;19959;-63
2023/06/17 03:39:14;;;;;;;;;;;23.30;45.10;;;;;;5092425;28;19920;-63
2023/06/17 03:41:40;;;;;;;;;;;23.30;45.20;;;;;;5093801;28;19920;-62
2023/06/17 03:44:05;;;;;;;;;;;23.30;45.20;;;;;;5092371;28;20057;-62
2023/06/17 03:46:31;;;;;;;;;;;23.30;45.20;;;;;;5093753;28;19971;-62
2023/06/17 03:48:57;;;;;;;;;;;23.30;45.30;;;;;;5093562;28;20431;-62
2023/06/17 03:51:23;;;;;;;;;;;23.30;45.30;;;;;;5092668;28;20263;-62
2023/06/17 03:53:48;;;;;;;;;;;23.30;45.30;;;;;;5092314;28;19927;-62
2023/06/17 03:56:14;;;;;;;;;;;23.20;46.10;;;;;;5092206;28;19919;-62
2023/06/17 03:58:40;;;;;;;;;;;23.20;45.40;;;;;;5092247;28;19927;-62
2023/06/17 04:01:07;;;;;;;;;;;23.20;45.50;;;;;;5092207;28;19924;-62
2023/06/17 04:03:34;;;;;;;;;;;23.20;45.60;;;;;;5093337;28;20283;-62
2023/06/17 04:06:00;;;;;;;;;;;23.20;45.60;;;;;;5092454;28;20000;-62
2023/06/17 04:08:27;;;;;;;;;;;23.20;45.70;;;;;;5091742;28;20428;-62
2023/06/17 04:10:52;;;;;;;;;;;23.20;45.70;;;;;;5092256;28;19920;-62
2023/06/17 04:13:18;;;;;;;;;;;23.20;45.80;;;;;;5091969;28;19927;-62
2023/06/17 04:15:45;;;;;;;;;;;23.20;45.80;;;;;;5092194;28;19920;-62
2023/06/17 04:18:10;;;;;;;;;;;23.20;46.60;;;;;;5092366;28;19928;-62
2023/06/17 04:20:36;;;;;;;;;;;23.10;45.80;;;;;;5092283;28;20256;-62
2023/06/17 04:23:01;;;;;;;;;;;23.20;45.80;;;;;;5092154;28;19920;-62
2023/06/17 04:25:27;;;;;;;;;;;23.10;45.90;;;;;;5091984;28;20414;-62
2023/06/17 04:27:53;;;;;;;;;;;23.10;45.90;;;;;;5092935;28;19927;-62
2023/06/17 04:30:19;;;;;;;;;;;23.10;46.00;;;;;;5091637;28;20357;-63
2023/06/17 04:32:45;;;;;;;;;;;23.10;45.90;;;;;;5091607;28;19920;-63
2023/06/17 04:35:11;;;;;;;;;;;23.10;46.00;;;;;;5091869;28;20063;-63
2023/06/17 04:37:37;;;;;;;;;;;23.10;46.10;;;;;;5092952;28;19920;-63
2023/06/17 04:40:06;;;;;;;;;;;23.00;46.10;;;;;;5091465;28;19920;-62
2023/06/17 04:42:33;;;;;;;;;;;23.10;46.20;;;;;;5091472;28;19928;-62
2023/06/17 04:44:59;;;;;;;;;;;23.10;46.20;;;;;;5091305;28;19956;-62
2023/06/17 04:47:24;;;;;;;;;;;23.10;46.30;;;;;;5092024;28;20435;-63
2023/06/17 04:49:51;;;;;;;;;;;23.10;46.30;;;;;;5091283;28;20444;-63
2023/06/17 04:52:20;;;;;;;;;;;23.10;46.40;;;;;;5091545;28;20002;-63
2023/06/17 04:54:46;;;;;;;;;;;23.10;46.50;;;;;;5092709;28;19947;-63
2023/06/17 04:57:11;;;;;;;;;;;23.00;46.40;;;;;;5091253;28;19924;-62
2023/06/17 04:59:37;;;;;;;;;;;23.00;46.40;;;;;;5091620;28;19989;-62
2023/06/17 05:02:03;;;;;;;;;;;23.00;46.40;;;;;;5091449;28;19927;-63
2023/06/17 05:04:29;;;;;;;;;;;23.00;46.50;;;;;;5091458;28;19920;-62
2023/06/17 05:06:54;;;;;;;;;;;23.00;46.60;;;;;;5091445;28;19978;-62
2023/06/17 05:09:20;;;;;;;;;;;23.00;46.60;;;;;;5091011;28;20015;-63
2023/06/17 05:11:45;;;;;;;;;;;23.00;46.60;;;;;;5092310;28;19920;-62
2023/06/17 05:14:11;;;;;;;;;;;23.00;46.70;;;;;;5091438;28;19920;-62
2023/06/17 05:16:37;;;;;;;;;;;23.00;46.70;;;;;;5092372;28;19920;-62
2023/06/17 05:19:02;;;;;;;;;;;23.00;46.70;;;;;;5091389;28;19973;-62
2023/06/17 05:21:27;;;;;;;;;;;23.00;46.80;;;;;;5091065;28;19920;-63
2023/06/17 05:23:53;;;;;;;;;;;23.00;46.80;;;;;;5092333;28;19920;-62
2023/06/17 05:26:18;;;;;;;;;;;22.90;46.80;;;;;;5090955;28;19920;-62
2023/06/17 05:28:44;;;;;;;;;;;22.90;46.90;;;;;;5091076;28;19950;-62
2023/06/17 05:31:10;;;;;;;;;;;22.90;46.90;;;;;;5091263;28;19920;-63
2023/06/17 05:33:36;;;;;;;;;;;22.90;47.00;;;;;;5091038;28;19941;-62
2023/06/17 05:36:01;;;;;;;;;;;22.90;46.90;;;;;;5091267;28;19924;-62
2023/06/17 05:38:27;;;;;;;;;;;22.90;47.00;;;;;;5124942;28;19960;-63
2023/06/17 05:40:52;;;;;;;;;;;22.90;47.00;;;;;;5090965;28;19935;-63
2023/06/17 05:43:18;;;;;;;;;;;22.90;47.10;;;;;;5092054;28;19927;-62
2023/06/17 05:45:44;;;;;;;;;;;22.90;47.10;;;;;;5091183;28;19924;-62
2023/06/17 05:48:10;;;;;;;;;;;22.90;47.20;;;;;;5090734;28;19926;-62
2023/06/17 05:50:35;;;;;;;;;;;22.90;47.20;;;;;;5091150;28;19920;-62
2023/06/17 05:53:01;;;;;;;;;;;22.90;47.20;;;;;;5090800;28;19924;-63
2023/06/17 05:55:26;;;;;;;;;;;22.90;47.20;;;;;;5092162;28;20326;-62
2023/06/17 05:57:52;;;;;;;;;;;22.90;47.20;;;;;;5128926;27;20367;-63
2023/06/17 06:00:18;;;;;;;;;;;22.90;47.30;;;;;;5094506;28;19924;-62
2023/06/17 06:02:43;;;;;;;;;;;22.90;47.30;;;;;;5095913;28;19927;-62
2023/06/17 06:05:09;;;;;;;;;;;22.90;47.30;;;;;;5094515;28;19920;-63
2023/06/17 06:07:35;;;;;;;;;;;22.90;47.30;;;;;;5094674;28;20011;-63
2023/06/17 06:10:03;;;;;;;;;;;22.90;47.30;;;;;;5094173;28;20402;-63
2023/06/17 06:12:29;;;;;;;;;;;22.90;47.40;;;;;;5094213;28;20038;-62
2023/06/17 06:14:55;;;;;;;;;;;22.90;47.40;;;;;;5094556;28;19948;-63
2023/06/17 06:17:20;;;;;;;;;;;22.90;47.40;;;;;;5094257;28;19974;-63
2023/06/17 06:19:49;;;;;;;;;;;22.90;47.40;;;;;;5095609;28;19928;-62
2023/06/17 06:22:14;;;;;;;;;;;22.90;47.50;;;;;;5094409;28;20279;-62
2023/06/17 06:24:40;;;;;;;;;;;22.90;47.40;;;;;;5094026;28;20015;-63
2023/06/17 06:27:05;;;;;;;;;;;22.90;47.50;;;;;;5094306;28;20317;-62
2023/06/17 06:29:31;;;;;;;;;;;22.90;47.60;;;;;;5093753;28;20015;-62
2023/06/17 06:31:56;;;;;;;;;;;22.90;47.60;;;;;;5094271;28;19920;-63
2023/06/17 06:34:22;;;;;;;;;;;22.90;47.50;;;;;;5093899;28;20263;-62
2023/06/17 06:36:47;;;;;;;;;;;22.90;47.60;;;;;;5093942;28;19973;-69
2023/06/17 06:39:13;;;;;;;;;;;22.90;47.50;;;;;;5095071;28;19926;-63
2023/06/17 06:41:38;;;;;;;;;;;22.90;47.60;;;;;;5094152;28;19927;-63
2023/06/17 06:44:03;;;;;;;;;;;22.90;47.60;;;;;;5093655;28;19920;-62
2023/06/17 06:46:31;;;;;;;;;;;22.90;47.60;;;;;;5095071;28;19928;-62
2023/06/17 06:48:56;;;;;;;;;;;22.90;47.60;;;;;;5093476;28;20401;-62
2023/06/17 06:51:22;;;;;;;;;;;22.90;47.60;;;;;;5093990;28;19920;-63
2023/06/17 06:53:48;;;;;;;;;;;22.90;47.60;;;;;;5093585;28;19920;-62
2023/06/17 06:56:14;;;;;;;;;;;22.90;47.60;;;;;;5093736;28;19920;-63
2023/06/17 06:58:39;;;;;;;;;;;22.90;47.70;;;;;;5093484;28;20374;-62
2023/06/17 07:01:05;;;;;;;;;;;22.90;47.70;;;;;;5093206;28;19923;-62
2023/06/17 07:03:30;;;;;;;;;;;22.90;47.70;;;;;;5094658;28;19924;-62
2023/06/17 07:05:56;;;;;;;;;;;22.90;47.80;;;;;;5094479;28;20306;-62
2023/06/17 07:08:21;;;;;;;;;;;22.90;47.70;;;;;;5094367;28;19924;-63
2023/06/17 07:10:47;;;;;;;;;;;22.90;47.70;;;;;;5094500;28;20374;-62
2023/06/17 07:13:12;;;;;;;;;;;22.90;47.70;;;;;;5093371;28;19920;-62
2023/06/17 07:15:38;;;;;;;;;;;22.90;47.70;;;;;;5092939;28;19920;-62
2023/06/17 07:18:04;;;;;;;;;;;22.90;47.70;;;;;;5094305;28;19920;-62
2023/06/17 07:20:29;;;;;;;;;;;22.90;47.80;;;;;;5093245;28;19926;-62
2023/06/17 07:22:55;;;;;;;;;;;22.90;47.80;;;;;;5094228;28;19967;-62
2023/06/17 07:25:20;;;;;;;;;;;22.90;47.80;;;;;;5092802;28;19920;-63
2023/06/17 07:27:46;;;;;;;;;;;22.90;47.80;;;;;;5093029;28;19926;-62
2023/06/17 07:30:11;;;;;;;;;;;22.90;47.80;;;;;;5092705;28;20404;-62
2023/06/17 07:32:37;;;;;;;;;;;22.90;47.80;;;;;;5094047;28;19924;-62
2023/06/17 07:35:03;;;;;;;;;;;22.90;47.70;;;;;;5092701;28;19920;-63
2023/06/17 07:37:28;;;;;;;;;;;22.90;47.80;;;;;;5092573;28;19927;-62
2023/06/17 07:39:54;;;;;;;;;;;22.90;47.80;;;;;;5075722;28;20141;-62
2023/06/17 07:42:19;;;;;;;;;;;22.90;47.80;;;;;;5093829;28;19920;-63
2023/06/17 07:44:45;;;;;;;;;;;22.90;47.80;;;;;;5092843;28;20065;-62
2023/06/17 07:47:10;;;;;;;;;;;22.90;47.80;;;;;;5093630;28;19923;-63
2023/06/17 07:49:36;;;;;;;;;;;22.90;47.80;;;;;;5092417;28;19977;-63
2023/06/17 07:52:02;;;;;;;;;;;22.90;47.80;;;;;;5092323;28;20014;-62
2023/06/17 07:54:28;;;;;;;;;;;22.90;47.80;;;;;;5092420;28;20173;-62
2023/06/17 07:56:53;;;;;;;;;;;22.90;47.90;;;;;;5092614;28;19920;-62
2023/06/17 07:59:18;;;;;;;;;;;22.90;47.90;;;;;;5092268;28;19920;-62
2023/06/17 08:01:45;;;;;;;;;;;22.90;47.90;;;;;;5093394;28;19942;-62
2023/06/17 08:04:10;;;;;;;;;;;22.90;47.90;;;;;;5092162;28;19946;-62
2023/06/17 08:06:37;;;;;;;;;;;22.90;47.90;;;;;;5093512;28;19924;-62
2023/06/17 08:09:03;;;;;;;;;;;22.90;48.00;;;;;;5091829;28;19938;-62
2023/06/17 08:11:28;;;;;;;;;;;22.90;47.90;;;;;;5092234;28;19924;-62
2023/06/17 08:13:54;;;;;;;;;;;22.90;47.90;;;;;;5091985;28;19946;-63
2023/06/17 08:16:19;;;;;;;;;;;22.90;47.90;;;;;;5092022;28;19920;-63
2023/06/17 08:18:45;;;;;;;;;;;22.90;48.00;;;;;;5091247;28;19920;-62
2023/06/17 08:21:10;;;;;;;;;;;22.90;47.90;;;;;;5093416;28;19920;-62
2023/06/17 08:23:36;;;;;;;;;;;22.90;48.00;;;;;;5092097;28;20303;-62
2023/06/17 08:26:01;;;;;;;;;;;22.90;47.90;;;;;;5091808;28;20271;-62
2023/06/17 08:28:27;;;;;;;;;;;22.90;48.00;;;;;;5091793;28;19986;-62
2023/06/17 08:30:52;;;;;;;;;;;22.90;47.90;;;;;;5091777;28;19951;-63
2023/06/17 08:33:18;;;;;;;;;;;22.90;48.00;;;;;;5091620;28;20013;-62
2023/06/17 08:35:43;;;;;;;;;;;22.90;47.90;;;;;;5091659;28;19924;-62
2023/06/17 08:38:09;;;;;;;;;;;22.90;47.90;;;;;;5091855;28;19920;-62
2023/06/17 08:40:35;;;;;;;;;;;22.90;47.80;;;;;;5091920;28;20015;-62
2023/06/17 08:43:02;;;;;;;;;;;22.90;47.90;;;;;;5091458;28;19920;-62
2023/06/17 08:45:28;;;;;;;;;;;22.90;48.00;;;;;;5092798;28;19920;-63
2023/06/17 08:47:53;;;;;;;;;;;22.90;47.90;;;;;;5091743;28;19985;-62
2023/06/17 08:50:19;;;;;;;;;;;23.00;47.70;;;;;;5091340;28;19928;-62
2023/06/17 08:52:46;;;;;;;;;;;23.00;47.80;;;;;;5091878;28;20005;-63
2023/06/17 08:55:12;;;;;;;;;;;23.00;47.70;;;;;;5091731;28;19950;-63
2023/06/17 08:57:37;;;;;;;;;;;23.00;47.80;;;;;;5092728;28;20391;-62
2023/06/17 09:00:04;;;;;;;;;;;23.10;47.70;;;;;;5091496;28;20366;-62
2023/06/17 09:02:31;;;;;;;;;;;23.10;47.70;;;;;;5091303;28;19920;-63
2023/06/17 09:04:57;;;;;;;;;;;23.10;47.70;;;;;;5091456;28;20263;-63
2023/06/17 09:07:22;;;;;;;;;;;23.10;47.60;;;;;;5091251;28;19945;-62
2023/06/17 09:09:52;;;;;;;;;;;23.10;47.60;;;;;;5090931;28;20286;-62
2023/06/17 09:12:17;;;;;;;;;;;23.20;47.70;;;;;;5091126;28;19920;-62
2023/06/17 09:14:44;;;;;;;;;;;23.20;47.70;;;;;;5091095;28;19924;-62
2023/06/17 09:17:10;;;;;;;;;;;23.20;47.70;;;;;;5091422;28;20041;-62
2023/06/17 09:19:38;;;;;;;;;;;23.20;47.70;;;;;;5091060;28;20429;-62
2023/06/17 09:22:06;;;;;;;;;;;23.20;47.60;;;;;;5091414;28;19921;-62
2023/06/17 09:24:31;;;;;;;;;;;23.30;47.60;;;;;;5091159;28;20279;-62
2023/06/17 09:26:57;;;;;;;;;;;23.30;47.60;;;;;;5091107;28;19927;-63
2023/06/17 09:29:22;;;;;;;;;;;23.30;47.50;;;;;;5090943;28;19938;-63
2023/06/17 09:31:49;;;;;;;;;;;23.40;47.50;;;;;;5094848;28;19967;-62
2023/06/17 09:34:15;;;;;;;;;;;23.30;47.40;;;;;;5095278;28;19920;-62
2023/06/17 09:36:41;;;;;;;;;;;23.30;47.40;;;;;;5096562;28;20400;-63
2023/06/17 09:39:08;;;;;;;;;;;23.40;47.40;;;;;;5096380;28;19920;-63
2023/06/17 09:41:35;;;;;;;;;;;23.40;47.40;;;;;;5096182;28;19966;-62
2023/06/17 09:44:01;;;;;;;;;;;23.40;47.40;;;;;;5094930;28;19927;-62
2023/06/17 09:46:35;;;;;;;;;;;23.40;47.30;;;;;;5096066;28;19920;-63
2023/06/17 09:49:02;;;;;;;;;;;23.40;47.30;;;;;;5094837;28;20374;-62
2023/06/17 09:51:36;;;;;;;;;;;23.40;47.20;;;;;;5094972;28;19967;-62
2023/06/17 09:54:02;;;;;;;;;;;23.40;47.20;;;;;;5095180;28;20286;-62
2023/06/17 09:56:31;;;;;;;;;;;23.40;47.20;;;;;;5095883;28;19924;-62
2023/06/17 09:58:56;;;;;;;;;;;23.40;47.20;;;;;;5094634;28;19955;-62
2023/06/17 10:01:30;;;;;;;;;;;23.40;47.20;;;;;;5094759;28;19966;-63
2023/06/17 10:03:58;;;;;;;;;;;23.40;47.20;;;;;;5094551;28;19924;-62
2023/06/17 10:06:25;;;;;;;;;;;23.40;47.20;;;;;;5094433;28;19920;-63
2023/06/17 10:08:52;;;;;;;;;;;23.40;47.20;;;;;;5094162;28;19924;-63
2023/06/17 10:11:18;;;;;;;;;;;23.50;47.30;;;;;;5094590;28;20287;-62
2023/06/17 10:13:44;;;;;;;;;;;23.50;47.20;;;;;;5094669;28;19920;-62
2023/06/17 10:16:12;;;;;;;;;;;23.50;47.20;;;;;;5095487;28;19927;-63
2023/06/17 10:18:39;;;;;;;;;;;23.50;47.20;;;;;;5095788;28;19924;-63
2023/06/17 10:21:06;;;;;;;;;;;23.50;47.30;;;;;;5094496;28;20371;-62
2023/06/17 10:23:34;;;;;;;;;;;23.50;47.20;;;;;;5094157;28;19930;-62
2023/06/17 10:26:03;;;;;;;;;;;23.50;47.20;;;;;;5095390;28;19927;-62
2023/06/17 10:28:41;;;;;;;;;;;23.50;47.10;;;;;;5095184;28;19924;-62
2023/06/17 10:31:18;;;;;;;;;;;23.50;47.20;;;;;;5094246;28;20346;-62
2023/06/17 10:33:45;;;;;;;;;;;23.50;47.20;;;;;;5094037;28;19924;-63
2023/06/17 10:36:14;;;;;;;;;;;23.50;47.10;;;;;;5094088;28;20366;-62
2023/06/17 10:38:39;;;;;;;;;;;23.50;47.10;;;;;;5095285;28;19920;-62
2023/06/17 10:41:05;;;;;;;;;;;23.50;47.20;;;;;;5093323;28;20007;-62
2023/06/17 10:43:38;;;;;;;;;;;23.50;47.10;;;;;;5093667;28;19924;-62
2023/06/17 10:46:03;;;;;;;;;;;23.50;47.10;;;;;;5094030;28;19920;-62
2023/06/17 10:48:31;;;;;;;;;;;23.50;47.20;;;;;;5093766;28;19954;-63
2023/06/17 10:50:57;;;;;;;;;;;23.50;47.30;;;;;;5093914;28;19989;-62
2023/06/17 10:53:25;;;;;;;;;;;23.50;47.30;;;;;;5093505;28;19927;-62
2023/06/17 10:55:50;;;;;;;;;;;23.50;47.20;;;;;;5093835;28;20398;-62
2023/06/17 10:58:16;;;;;;;;;;;23.50;47.30;;;;;;5093378;28;19920;-63
2023/06/17 11:00:41;;;;;;;;;;;23.50;47.30;;;;;;5094717;28;20061;-62
2023/06/17 11:03:08;;;;;;;;;;;23.50;47.40;;;;;;5093598;28;19920;-62
2023/06/17 11:05:34;;;;;;;;;;;23.50;47.30;;;;;;5093659;28;19924;-62
2023/06/17 11:08:00;;;;;;;;;;;23.50;47.30;;;;;;5094307;28;19920;-62
2023/06/17 11:10:26;;;;;;;;;;;23.50;47.30;;;;;;5093206;28;19931;-63
2023/06/17 11:12:52;;;;;;;;;;;23.60;47.40;;;;;;5093171;28;19920;-62
2023/06/17 11:15:17;;;;;;;;;;;23.50;47.40;;;;;;5093190;28;20371;-62
2023/06/17 11:17:43;;;;;;;;;;;23.60;47.40;;;;;;5094306;28;19920;-62
2023/06/17 11:20:10;;;;;;;;;;;23.60;47.40;;;;;;5094323;28;19982;-62
2023/06/17 11:22:37;;;;;;;;;;;23.60;47.40;;;;;;5093059;28;19969;-62
2023/06/17 11:25:02;;;;;;;;;;;23.60;47.40;;;;;;5093153;28;19934;-63
2023/06/17 11:27:28;;;;;;;;;;;23.60;47.40;;;;;;5094092;28;19920;-62
2023/06/17 11:29:53;;;;;;;;;;;23.60;47.40;;;;;;5093825;28;19978;-63
2023/06/17 11:32:20;;;;;;;;;;;23.60;47.40;;;;;;5092807;28;19923;-62
2023/06/17 11:34:45;;;;;;;;;;;23.60;47.40;;;;;;5092680;28;20379;-62
2023/06/17 11:37:11;;;;;;;;;;;23.60;47.40;;;;;;5093147;28;19924;-63
2023/06/17 11:39:37;;;;;;;;;;;23.60;47.40;;;;;;5092594;28;19920;-63
2023/06/17 11:42:03;;;;;;;;;;;23.60;47.40;;;;;;5093927;28;20354;-62
2023/06/17 11:44:32;;;;;;;;;;;23.60;47.40;;;;;;5093728;28;19920;-62
2023/06/17 11:47:12;;;;;;;;;;;23.60;47.40;;;;;;5092661;28;20389;-62
2023/06/17 11:49:41;;;;;;;;;;;23.60;47.30;;;;;;5092420;28;20207;-62
2023/06/17 11:52:08;;;;;;;;;;;23.70;47.40;;;;;;5092577;28;19920;-62
2023/06/17 11:54:35;;;;;;;;;;;23.60;47.30;;;;;;5091711;28;19927;-62
2023/06/17 11:57:02;;;;;;;;;;;23.60;47.30;;;;;;5093609;28;19934;-62
2023/06/17 11:59:29;;;;;;;;;;;23.70;47.30;;;;;;5092520;28;19920;-63
2023/06/17 12:01:55;;;;;;;;;;;23.70;47.30;;;;;;5092236;28;20348;-62
2023/06/17 12:04:21;;;;;;;;;;;23.70;47.30;;;;;;5092457;28;19920;-63
2023/06/17 12:06:46;;;;;;;;;;;23.70;47.30;;;;;;5092216;28;19920;-62
2023/06/17 12:09:12;;;;;;;;;;;23.70;47.30;;;;;;5093154;28;19924;-63
2023/06/17 12:11:39;;;;;;;;;;;23.70;47.30;;;;;;5092087;28;20393;-62
2023/06/17 12:14:07;;;;;;;;;;;23.70;47.30;;;;;;5092277;28;19924;-62
2023/06/17 12:16:34;;;;;;;;;;;23.70;47.30;;;;;;5091973;28;19946;-62
2023/06/17 12:19:00;;;;;;;;;;;23.70;47.20;;;;;;5126115;27;19972;-62
2023/06/17 12:21:26;;;;;;;;;;;23.70;47.20;;;;;;5092199;28;20272;-63
2023/06/17 12:23:53;;;;;;;;;;;23.70;47.20;;;;;;5091870;28;19927;-63
2023/06/17 12:26:19;;;;;;;;;;;23.70;47.20;;;;;;5093000;28;19920;-62
2023/06/17 12:28:45;;;;;;;;;;;23.70;47.20;;;;;;5091625;28;19925;-62
2023/06/17 12:31:11;;;;;;;;;;;23.80;47.20;;;;;;5093288;28;20314;-62
2023/06/17 12:33:38;;;;;;;;;;;23.70;47.10;;;;;;5092254;28;19927;-62
2023/06/17 12:36:04;;;;;;;;;;;23.80;47.20;;;;;;5091631;28;19920;-62
2023/06/17 12:38:30;;;;;;;;;;;23.80;47.10;;;;;;5092124;28;19920;-62
2023/06/17 12:40:59;;;;;;;;;;;23.80;47.10;;;;;;5091869;28;19943;-62
2023/06/17 12:43:24;;;;;;;;;;;23.80;47.10;;;;;;5091866;28;19978;-63
2023/06/17 12:45:50;;;;;;;;;;;23.80;47.90;;;;;;5091504;28;20345;-62
2023/06/17 12:48:15;;;;;;;;;;;23.80;47.10;;;;;;5093008;28;19950;-62
2023/06/17 12:50:41;;;;;;;;;;;23.80;47.10;;;;;;5092798;28;19924;-63
2023/06/17 12:53:07;;;;;;;;;;;23.90;47.10;;;;;;5092695;28;19927;-62
2023/06/17 12:55:32;;;;;;;;;;;23.90;47.10;;;;;;5091980;28;19938;-62
2023/06/17 12:57:58;;;;;;;;;;;23.80;47.00;;;;;;5091495;28;19921;-62
2023/06/17 13:00:24;;;;;;;;;;;23.90;47.10;;;;;;5091327;28;19920;-62
2023/06/17 13:02:50;;;;;;;;;;;23.90;47.00;;;;;;5091534;28;20007;-62
2023/06/17 13:05:15;;;;;;;;;;;23.90;47.00;;;;;;5091351;28;19920;-62
2023/06/17 13:07:42;;;;;;;;;;;23.90;47.00;;;;;;5092637;28;19976;-62
2023/06/17 13:10:07;;;;;;;;;;;23.90;47.00;;;;;;5090945;28;19930;-62
2023/06/17 13:12:33;;;;;;;;;;;23.90;46.90;;;;;;5091054;28;19920;-62
2023/06/17 13:14:59;;;;;;;;;;;23.90;46.90;;;;;;5092475;28;19920;-62
2023/06/17 13:17:24;;;;;;;;;;;23.90;46.90;;;;;;5091073;28;20328;-62
2023/06/17 13:19:50;;;;;;;;;;;23.90;46.90;;;;;;5091479;28;19920;-62
2023/06/17 13:22:15;;;;;;;;;;;24.00;47.00;;;;;;5092390;28;20333;-62
2023/06/17 13:24:41;;;;;;;;;;;24.00;46.90;;;;;;5091364;28;19924;-62
2023/06/17 13:27:06;;;;;;;;;;;24.00;46.90;;;;;;5092264;28;19920;-63
2023/06/17 13:29:32;;;;;;;;;;;24.00;46.90;;;;;;5090972;28;19928;-62
2023/06/17 13:31:58;;;;;;;;;;;24.00;46.90;;;;;;5091152;28;19920;-62
2023/06/17 13:34:24;;;;;;;;;;;24.00;46.90;;;;;;5089617;28;19927;-62
2023/06/17 13:36:49;;;;;;;;;;;24.00;47.60;;;;;;5090275;28;19920;-62
2023/06/17 13:39:15;;;;;;;;;;;24.00;46.80;;;;;;5090860;28;19920;-63
2023/06/17 13:41:41;;;;;;;;;;;24.00;46.80;;;;;;5091293;28;19924;-63
2023/06/17 13:44:07;;;;;;;;;;;24.00;46.80;;;;;;5091061;28;20283;-62
2023/06/17 13:46:33;;;;;;;;;;;24.10;46.80;;;;;;5125293;28;19920;-62
2023/06/17 13:48:58;;;;;;;;;;;24.10;46.80;;;;;;5090729;28;19931;-62
2023/06/17 13:51:24;;;;;;;;;;;24.10;46.80;;;;;;5090853;28;19920;-62
2023/06/17 13:53:50;;;;;;;;;;;24.10;46.80;;;;;;5091099;28;19953;-62
2023/06/17 13:56:17;;;;;;;;;;;24.10;46.80;;;;;;5092049;28;19927;-63
2023/06/17 13:58:45;;;;;;;;;;;24.10;46.80;;;;;;5091982;28;20283;-62
2023/06/17 14:01:10;;;;;;;;;;;24.10;46.70;;;;;;5090745;28;20263;-62
2023/06/17 14:03:36;;;;;;;;;;;24.10;46.70;;;;;;5090986;28;19968;-62
2023/06/17 14:06:01;;;;;;;;;;;24.10;46.70;;;;;;5090777;28;20010;-62
2023/06/17 14:08:27;;;;;;;;;;;24.10;46.60;;;;;;5090353;28;19924;-62
2023/06/17 14:10:52;;;;;;;;;;;24.10;46.70;;;;;;5090648;28;20298;-62
2023/06/17 14:13:18;;;;;;;;;;;24.10;46.60;;;;;;5090820;28;20039;-62